Time;durP1;ratioP1;P1;durP2;ratioP2;P2;SDS_P1;SDS_P2;PMS_P1;PMS_P2;Temp;Humidity;BMP_temperature;BMP_pressure;BME280_temperature;BME280_humidity;BME280_pressure;Samples;Min_cycle;Max_cycle;Signal;HPM_P1;HPM_P2
2023/02/06 00:00:12;;;;;;;22.20;9.90;;;;;;;;;;1029269;28;20015;-71
2023/02/06 00:00:43;;;;;;;27.45;11.68;;;;;;;;;;1032675;28;20030;-71
2023/02/06 00:01:14;;;;;;;25.90;10.63;;;;;;;;;;1033205;28;20030;-71
2023/02/06 00:01:46;;;;;;;26.23;10.88;;;;;;;;;;1033192;28;20011;-71
2023/02/06 00:02:16;;;;;;;22.67;10.30;;;;;;;;;;1033942;28;20022;-71
2023/02/06 00:02:47;;;;;;;21.10;11.77;;;;;;;;;;1032867;28;20477;-71
2023/02/06 00:03:19;;;;;;;25.55;12.27;;;;;;;;;;1033806;28;20002;-71
2023/02/06 00:03:49;;;;;;;23.77;10.25;;;;;;;;;;1035537;28;20018;-71
2023/02/06 00:04:20;;;;;;;19.73;10.38;;;;;;;;;;1032942;28;20085;-71
2023/02/06 00:04:50;;;;;;;17.92;9.57;;;;;;;;;;1033327;28;20105;-71
2023/02/06 00:05:20;;;;;;;23.35;10.43;;;;;;;;;;1032159;28;20018;-71
2023/02/06 00:05:57;;;;;;;24.60;11.48;;;;;;;;;;1036198;28;21218;-71
2023/02/06 00:06:28;;;;;;;23.30;11.68;;;;;;;;;;1033837;28;20030;-71
2023/02/06 00:06:59;;;;;;;25.67;11.18;;;;;;;;;;1029561;28;20023;-71
2023/02/06 00:07:29;;;;;;;22.83;11.05;;;;;;;;;;1029396;28;20556;-71
2023/02/06 00:08:00;;;;;;;19.40;8.27;;;;;;;;;;1032621;28;20118;-71
2023/02/06 00:08:30;;;;;;;19.35;10.77;;;;;;;;;;1030631;28;20033;-71
2023/02/06 00:09:02;;;;;;;23.13;11.20;;;;;;;;;;1034660;28;20033;-71
2023/02/06 00:09:32;;;;;;;23.48;10.65;;;;;;;;;;1031871;28;20015;-71
2023/02/06 00:10:03;;;;;;;29.42;12.57;;;;;;;;;;1032827;28;20025;-71
2023/02/06 00:10:33;;;;;;;21.45;9.68;;;;;;;;;;1029845;28;20089;-71
2023/02/06 00:11:06;;;;;;;17.70;9.70;;;;;;;;;;1031476;28;20105;-71
2023/02/06 00:11:37;;;;;;;21.60;9.68;;;;;;;;;;1033520;28;20121;-71
2023/02/06 00:12:07;;;;;;;25.33;11.52;;;;;;;;;;1034783;28;20108;-71
2023/02/06 00:12:38;;;;;;;20.80;9.93;;;;;;;;;;1029639;28;20033;-71
2023/02/06 00:13:09;;;;;;;22.23;10.27;;;;;;;;;;1034267;28;20021;-71
2023/02/06 00:13:39;;;;;;;24.63;10.90;;;;;;;;;;1034338;28;20040;-71
2023/02/06 00:14:10;;;;;;;24.63;10.52;;;;;;;;;;1034635;28;20026;-71
2023/02/06 00:14:40;;;;;;;26.05;10.40;;;;;;;;;;1034392;28;20030;-71
2023/02/06 00:15:11;;;;;;;19.40;10.00;;;;;;;;;;1034398;28;20474;-71
2023/02/06 00:15:41;;;;;;;21.15;10.80;;;;;;;;;;1035426;28;20018;-71
2023/02/06 00:16:31;;;;;;;26.40;11.90;;;;;;;;;;1034566;28;20485;-71
2023/02/06 00:17:01;;;;;;;14.95;7.72;;;;;;;;;;1035529;28;20124;-71
2023/02/06 00:17:35;;;;;;;21.63;9.15;;;;;;;;;;1035060;28;20019;-71
2023/02/06 00:18:06;;;;;;;20.40;9.70;;;;;;;;;;1031179;28;20113;-71
2023/02/06 00:18:36;;;;;;;17.40;9.82;;;;;;;;;;1034068;28;20082;-71
2023/02/06 00:19:06;;;;;;;18.73;8.95;;;;;;;;;;1035370;28;20026;-71
2023/02/06 00:19:37;;;;;;;21.23;8.85;;;;;;;;;;1036876;28;20029;-71
2023/02/06 00:20:08;;;;;;;21.48;11.23;;;;;;;;;;1035089;28;20505;-71
2023/02/06 00:20:38;;;;;;;24.17;8.85;;;;;;;;;;1035449;28;20036;-71
2023/02/06 00:21:08;;;;;;;24.35;9.75;;;;;;;;;;1035050;28;20076;-71
2023/02/06 00:21:39;;;;;;;23.48;9.65;;;;;;;;;;1033590;28;20018;-71
2023/02/06 00:22:12;;;;;;;16.60;9.75;;;;;;;;;;1034533;28;20561;-71
2023/02/06 00:22:43;;;;;;;30.00;11.45;;;;;;;;;;1033542;28;20030;-71
2023/02/06 00:23:13;;;;;;;17.67;9.02;;;;;;;;;;1035789;28;20026;-71
2023/02/06 00:23:44;;;;;;;17.17;9.57;;;;;;;;;;1035619;28;20023;-71
2023/02/06 00:24:14;;;;;;;20.25;9.43;;;;;;;;;;1035634;28;20022;-71
2023/02/06 00:24:45;;;;;;;18.80;10.02;;;;;;;;;;1035573;28;20030;-71
2023/02/06 00:25:15;;;;;;;15.75;8.15;;;;;;;;;;1034146;28;20033;-71
2023/02/06 00:25:46;;;;;;;19.90;9.88;;;;;;;;;;1034772;28;20069;-71
2023/02/06 00:26:16;;;;;;;20.02;9.18;;;;;;;;;;1034360;28;20025;-71
2023/02/06 00:26:47;;;;;;;15.77;9.27;;;;;;;;;;1037115;28;20061;-71
2023/02/06 00:27:17;;;;;;;16.98;9.02;;;;;;;;;;1032349;28;20022;-71
2023/02/06 00:27:48;;;;;;;16.30;8.05;;;;;;;;;;1030641;28;20490;-71
2023/02/06 00:28:18;;;;;;;16.55;8.95;;;;;;;;;;1030654;28;20155;-71
2023/02/06 00:28:49;;;;;;;17.17;9.23;;;;;;;;;;1031708;28;20022;-71
2023/02/06 00:29:19;;;;;;;23.23;10.40;;;;;;;;;;1034753;28;20065;-71
2023/02/06 00:29:50;;;;;;;20.27;8.82;;;;;;;;;;1035520;28;20026;-71
2023/02/06 00:30:20;;;;;;;19.08;9.93;;;;;;;;;;1035049;28;20022;-71
2023/02/06 00:30:51;;;;;;;18.77;9.68;;;;;;;;;;1036130;28;20082;-71
2023/02/06 00:31:21;;;;;;;17.85;9.07;;;;;;;;;;1030274;28;20030;-71
2023/02/06 00:31:52;;;;;;;20.98;10.00;;;;;;;;;;1031894;28;20030;-71
2023/02/06 00:32:22;;;;;;;18.80;10.23;;;;;;;;;;1032960;28;20514;-71
2023/02/06 00:32:53;;;;;;;16.98;9.18;;;;;;;;;;1032631;28;20053;-71
2023/02/06 00:33:23;;;;;;;18.83;9.77;;;;;;;;;;1028141;28;20030;-71
2023/02/06 00:33:54;;;;;;;20.60;8.25;;;;;;;;;;1031513;28;20498;-71
2023/02/06 00:34:24;;;;;;;16.35;8.35;;;;;;;;;;1033835;28;20211;-71
2023/02/06 00:34:55;;;;;;;20.70;10.15;;;;;;;;;;1033520;28;20023;-71
2023/02/06 00:35:25;;;;;;;11.00;7.60;;;;;;;;;;1034191;28;20023;-71
2023/02/06 00:35:56;;;;;;;20.42;9.05;;;;;;;;;;1034092;28;20021;-71
2023/02/06 00:36:26;;;;;;;20.88;8.98;;;;;;;;;;1033607;28;20017;-71
2023/02/06 00:36:57;;;;;;;20.88;8.85;;;;;;;;;;1034419;28;20041;-71
2023/02/06 00:37:27;;;;;;;21.70;9.00;;;;;;;;;;1032719;28;20037;-71
2023/02/06 00:37:59;;;;;;;17.38;8.70;;;;;;;;;;1031578;28;20026;-71
2023/02/06 00:38:30;;;;;;;26.83;10.15;;;;;;;;;;1028415;28;20077;-71
2023/02/06 00:39:00;;;;;;;20.38;9.68;;;;;;;;;;1031026;28;20035;-71
2023/02/06 00:39:31;;;;;;;21.10;8.93;;;;;;;;;;1033641;28;20102;-71
2023/02/06 00:40:01;;;;;;;17.25;9.63;;;;;;;;;;1035174;28;20034;-71
2023/02/06 00:40:32;;;;;;;15.38;8.25;;;;;;;;;;1035116;28;20002;-71
2023/02/06 00:41:02;;;;;;;16.75;8.18;;;;;;;;;;1036058;28;20508;-71
2023/02/06 00:41:33;;;;;;;15.00;8.77;;;;;;;;;;1037084;28;20062;-71
2023/02/06 00:42:03;;;;;;;14.32;8.20;;;;;;;;;;1030754;28;20113;-71
2023/02/06 00:42:34;;;;;;;19.00;8.30;;;;;;;;;;1032194;28;20022;-71
2023/02/06 00:43:04;;;;;;;15.15;8.50;;;;;;;;;;1031073;28;20562;-71
2023/02/06 00:43:36;;;;;;;22.58;8.57;;;;;;;;;;1031605;28;20548;-71
2023/02/06 00:44:06;;;;;;;19.85;8.27;;;;;;;;;;1031737;28;20034;-71
2023/02/06 00:44:37;;;;;;;14.10;8.15;;;;;;;;;;1026547;28;20027;-71
2023/02/06 00:45:08;;;;;;;19.17;9.10;;;;;;;;;;1033924;28;20022;-71
2023/02/06 00:45:38;;;;;;;12.57;6.28;;;;;;;;;;1035251;28;20109;-71
2023/02/06 00:46:09;;;;;;;17.27;9.05;;;;;;;;;;1030368;28;20022;-71
2023/02/06 00:46:39;;;;;;;12.80;7.60;;;;;;;;;;1034440;28;20049;-71
2023/02/06 00:47:10;;;;;;;21.48;8.75;;;;;;;;;;1037302;28;20041;-71
2023/02/06 00:47:40;;;;;;;15.88;7.45;;;;;;;;;;1031601;28;20014;-71
2023/02/06 00:48:15;;;;;;;16.73;8.02;;;;;;;;;;1033541;28;20030;-71
2023/02/06 00:48:45;;;;;;;17.25;7.32;;;;;;;;;;1035236;28;20027;-71
2023/02/06 00:49:16;;;;;;;15.50;7.70;;;;;;;;;;1037491;28;20080;-71
2023/02/06 00:49:46;;;;;;;19.83;8.10;;;;;;;;;;1035639;28;20029;-71
2023/02/06 00:50:17;;;;;;;16.13;7.35;;;;;;;;;;1035222;28;20033;-71
2023/02/06 00:50:48;;;;;;;21.48;8.50;;;;;;;;;;1033014;28;20033;-71
2023/02/06 00:51:19;;;;;;;15.98;7.57;;;;;;;;;;1035182;28;20556;-71
2023/02/06 00:51:49;;;;;;;15.18;7.43;;;;;;;;;;1036127;28;20030;-71
2023/02/06 00:52:20;;;;;;;14.60;7.35;;;;;;;;;;1035337;28;20031;-71
2023/02/06 00:52:50;;;;;;;21.60;8.32;;;;;;;;;;1034022;28;20026;-71
2023/02/06 00:53:21;;;;;;;11.82;6.45;;;;;;;;;;1033895;28;20478;-71
2023/02/06 00:53:52;;;;;;;12.55;7.10;;;;;;;;;;1035446;28;20627;-71
2023/02/06 00:54:22;;;;;;;13.18;6.03;;;;;;;;;;1034926;28;20085;-71
2023/02/06 00:54:53;;;;;;;19.30;7.07;;;;;;;;;;1030626;28;20022;-71
2023/02/06 00:55:24;;;;;;;14.90;8.30;;;;;;;;;;1030011;28;20046;-71
2023/02/06 00:55:54;;;;;;;13.65;7.43;;;;;;;;;;1033917;28;20561;-71
2023/02/06 00:56:25;;;;;;;29.10;7.85;;;;;;;;;;1032988;28;20026;-71
2023/02/06 00:56:55;;;;;;;21.40;7.47;;;;;;;;;;1034013;28;20461;-71
2023/02/06 00:57:26;;;;;;;17.25;8.30;;;;;;;;;;1035079;28;20022;-71
2023/02/06 00:57:56;;;;;;;13.38;6.00;;;;;;;;;;1036103;28;20022;-71
2023/02/06 00:58:27;;;;;;;11.23;6.68;;;;;;;;;;1032082;28;20120;-71
2023/02/06 00:58:57;;;;;;;9.25;6.10;;;;;;;;;;1034435;28;20026;-71
2023/02/06 00:59:28;;;;;;;12.70;5.50;;;;;;;;;;1035371;28;20086;-71
2023/02/06 00:59:58;;;;;;;14.50;7.25;;;;;;;;;;1033431;28;20085;-71
2023/02/06 01:00:29;;;;;;;15.63;7.13;;;;;;;;;;1033808;28;20052;-71
2023/02/06 01:00:59;;;;;;;17.52;7.72;;;;;;;;;;1034985;28;20112;-71
2023/02/06 01:01:30;;;;;;;10.07;5.68;;;;;;;;;;1035812;28;20282;-71
2023/02/06 01:02:00;;;;;;;15.52;8.00;;;;;;;;;;1037338;28;20014;-71
2023/02/06 01:02:31;;;;;;;10.23;6.30;;;;;;;;;;1036488;28;20064;-71
2023/02/06 01:03:01;;;;;;;11.98;5.30;;;;;;;;;;1034007;28;20054;-71
2023/02/06 01:03:32;;;;;;;14.27;6.38;;;;;;;;;;1032089;28;20040;-71
2023/02/06 01:04:02;;;;;;;9.75;5.35;;;;;;;;;;1032317;28;20146;-71
2023/02/06 01:04:33;;;;;;;12.48;7.28;;;;;;;;;;1033475;28;20046;-71
2023/02/06 01:05:03;;;;;;;14.13;8.27;;;;;;;;;;1033235;28;20050;-71
2023/02/06 01:05:34;;;;;;;17.42;6.57;;;;;;;;;;1034254;28;20030;-71
2023/02/06 01:06:04;;;;;;;16.15;7.50;;;;;;;;;;1029802;28;20363;-71
2023/02/06 01:06:35;;;;;;;11.52;7.10;;;;;;;;;;1032111;28;20061;-71
2023/02/06 01:07:05;;;;;;;12.32;5.57;;;;;;;;;;1033089;28;20049;-71
2023/02/06 01:07:38;;;;;;;12.32;6.55;;;;;;;;;;1031396;28;20029;-71
2023/02/06 01:08:08;;;;;;;18.63;5.97;;;;;;;;;;1032873;28;20046;-71
2023/02/06 01:08:39;;;;;;;13.73;8.60;;;;;;;;;;1028279;28;20023;-71
2023/02/06 01:09:09;;;;;;;9.77;6.88;;;;;;;;;;1029443;28;20099;-71
2023/02/06 01:09:40;;;;;;;16.92;5.90;;;;;;;;;;1025906;28;20027;-71
2023/02/06 01:10:11;;;;;;;14.05;7.32;;;;;;;;;;1029984;28;20086;-71
2023/02/06 01:10:42;;;;;;;14.98;6.70;;;;;;;;;;1029727;28;20022;-71
2023/02/06 01:11:13;;;;;;;13.43;7.43;;;;;;;;;;1031918;28;20495;-71
2023/02/06 01:11:44;;;;;;;12.07;6.65;;;;;;;;;;1031218;28;20054;-71
2023/02/06 01:12:14;;;;;;;13.43;6.15;;;;;;;;;;1034511;28;20033;-71
2023/02/06 01:12:45;;;;;;;13.35;6.65;;;;;;;;;;1034631;28;20871;-71
2023/02/06 01:13:15;;;;;;;13.00;7.82;;;;;;;;;;1033383;28;20116;-71
2023/02/06 01:13:46;;;;;;;15.80;6.63;;;;;;;;;;1033006;28;20026;-71
2023/02/06 01:14:16;;;;;;;9.77;6.32;;;;;;;;;;1033189;28;20025;-71
2023/02/06 01:14:47;;;;;;;9.65;6.93;;;;;;;;;;1032528;28;20026;-71
2023/02/06 01:15:20;;;;;;;16.83;5.82;;;;;;;;;;1034399;28;20033;-71
2023/02/06 01:15:50;;;;;;;11.52;6.65;;;;;;;;;;1031167;28;20375;-71
2023/02/06 01:16:22;;;;;;;12.43;7.53;;;;;;;;;;1029593;28;20045;-71
2023/02/06 01:16:52;;;;;;;11.45;6.35;;;;;;;;;;1028930;28;20438;-71
2023/02/06 01:17:23;;;;;;;14.45;7.72;;;;;;;;;;1027539;28;20034;-71
2023/02/06 01:17:53;;;;;;;10.13;6.07;;;;;;;;;;1032028;28;20068;-72
2023/02/06 01:18:24;;;;;;;14.48;8.93;;;;;;;;;;1030312;28;20049;-71
2023/02/06 01:18:54;;;;;;;12.90;6.95;;;;;;;;;;1032752;28;20065;-71
2023/02/06 01:19:25;;;;;;;10.00;6.28;;;;;;;;;;1034194;28;20024;-71
2023/02/06 01:19:55;;;;;;;12.90;7.35;;;;;;;;;;1029798;28;20026;-71
2023/02/06 01:20:26;;;;;;;13.45;6.97;;;;;;;;;;1026184;28;20483;-71
2023/02/06 01:20:56;;;;;;;10.93;7.00;;;;;;;;;;1026887;28;20066;-71
2023/02/06 01:21:27;;;;;;;12.65;6.00;;;;;;;;;;1032235;28;20026;-71
2023/02/06 01:21:58;;;;;;;15.85;8.18;;;;;;;;;;1032394;28;20117;-72
2023/02/06 01:22:28;;;;;;;11.07;6.82;;;;;;;;;;1030494;28;20037;-72
2023/02/06 01:22:59;;;;;;;21.02;7.35;;;;;;;;;;1027202;28;20082;-72
2023/02/06 01:23:29;;;;;;;16.52;7.00;;;;;;;;;;1027886;28;20099;-72
2023/02/06 01:24:02;;;;;;;12.48;6.60;;;;;;;;;;1029693;28;20032;-72
2023/02/06 01:24:32;;;;;;;13.18;8.00;;;;;;;;;;1036950;28;20482;-72
2023/02/06 01:25:03;;;;;;;15.63;6.53;;;;;;;;;;1031952;28;20054;-72
2023/02/06 01:25:35;;;;;;;16.65;7.88;;;;;;;;;;1035853;28;20017;-73
2023/02/06 01:26:06;;;;;;;19.45;9.63;;;;;;;;;;1034536;28;20002;-73
2023/02/06 01:26:37;;;;;;;20.02;9.20;;;;;;;;;;1033075;28;20030;-73
2023/02/06 01:27:07;;;;;;;26.38;9.00;;;;;;;;;;1033057;28;20030;-73
2023/02/06 01:27:38;;;;;;;22.90;8.57;;;;;;;;;;1034048;28;20022;-72
2023/02/06 01:28:09;;;;;;;21.15;10.35;;;;;;;;;;1037797;28;20057;-72
2023/02/06 01:28:40;;;;;;;36.13;11.73;;;;;;;;;;1033992;28;20099;-74
2023/02/06 01:29:11;;;;;;;27.45;13.40;;;;;;;;;;1030631;28;20006;-73
2023/02/06 01:29:42;;;;;;;28.05;12.82;;;;;;;;;;1033127;28;20019;-73
2023/02/06 01:30:12;;;;;;;23.85;11.27;;;;;;;;;;1027163;28;20017;-73
2023/02/06 01:30:43;;;;;;;18.45;10.82;;;;;;;;;;1033535;28;20026;-72
2023/02/06 01:31:25;;;;;;;30.20;11.30;;;;;;;;;;1029394;28;20050;-73
2023/02/06 01:31:56;;;;;;;33.65;13.55;;;;;;;;;;1029198;28;20035;-72
2023/02/06 01:32:27;;;;;;;38.55;14.48;;;;;;;;;;1028939;28;20053;-72
2023/02/06 01:32:58;;;;;;;33.75;13.02;;;;;;;;;;1028763;28;20063;-72
2023/02/06 01:33:28;;;;;;;29.88;13.43;;;;;;;;;;1029545;28;20089;-72
2023/02/06 01:34:00;;;;;;;43.28;13.95;;;;;;;;;;1030711;28;20124;-72
2023/02/06 01:35:05;;;;;;;34.22;14.05;;;;;;;;;;1031926;28;20076;-75
2023/02/06 01:35:36;;;;;;;27.08;13.35;;;;;;;;;;1035238;28;20014;-72
2023/02/06 01:36:06;;;;;;;42.75;16.00;;;;;;;;;;1029510;28;20026;-72
2023/02/06 01:36:37;;;;;;;28.85;12.65;;;;;;;;;;1031478;28;20026;-72
2023/02/06 01:37:08;;;;;;;37.15;13.73;;;;;;;;;;1032777;28;20033;-72
2023/02/06 01:37:38;;;;;;;31.45;14.77;;;;;;;;;;1030684;28;20113;-72
2023/02/06 01:38:09;;;;;;;34.20;13.63;;;;;;;;;;1030763;28;20026;-72
2023/02/06 01:38:40;;;;;;;29.73;12.85;;;;;;;;;;1034767;28;20023;-72
2023/02/06 01:39:11;;;;;;;31.42;14.35;;;;;;;;;;1027901;28;21193;-72
2023/02/06 01:39:46;;;;;;;28.52;12.00;;;;;;;;;;1030221;28;20023;-72
2023/02/06 01:40:16;;;;;;;27.67;13.65;;;;;;;;;;1028643;28;20034;-72
2023/02/06 01:40:47;;;;;;;40.03;14.82;;;;;;;;;;1029220;28;20081;-72
2023/02/06 01:41:19;;;;;;;31.15;12.68;;;;;;;;;;1033455;28;20029;-72
2023/02/06 01:41:49;;;;;;;29.67;12.60;;;;;;;;;;1035226;28;20027;-72
2023/02/06 01:42:20;;;;;;;24.85;12.60;;;;;;;;;;1031717;28;21036;-73
2023/02/06 01:42:54;;;;;;;32.20;13.30;;;;;;;;;;1036988;28;20026;-73
2023/02/06 01:43:27;;;;;;;27.58;12.18;;;;;;;;;;1035134;28;20018;-73
2023/02/06 01:44:14;;;;;;;32.42;12.88;;;;;;;;;;1033557;28;20446;-73
2023/02/06 01:44:44;;;;;;;31.83;12.95;;;;;;;;;;1035105;28;20022;-72
2023/02/06 01:45:35;;;;;;;38.70;14.20;;;;;;;;;;1032841;28;20089;-72
2023/02/06 01:46:06;;;;;;;29.48;14.02;;;;;;;;;;1037712;28;20045;-72
2023/02/06 01:46:41;;;;;;;29.70;13.77;;;;;;;;;;1037285;28;20060;-72
2023/02/06 01:47:12;;;;;;;26.08;14.80;;;;;;;;;;1033953;28;20049;-72
2023/02/06 01:47:42;;;;;;;31.55;13.63;;;;;;;;;;1032888;28;20163;-72
2023/02/06 01:48:17;;;;;;;31.58;13.38;;;;;;;;;;1033933;28;20028;-72
2023/02/06 01:48:50;;;;;;;25.58;13.45;;;;;;;;;;1036084;28;20098;-72
2023/02/06 01:49:34;;;;;;;31.25;14.02;;;;;;;;;;1034462;28;20030;-72
2023/02/06 01:50:05;;;;;;;30.75;14.13;;;;;;;;;;1036615;28;20031;-72
2023/02/06 01:50:37;;;;;;;26.98;13.10;;;;;;;;;;1037032;28;20013;-72
2023/02/06 01:51:09;;;;;;;31.58;14.40;;;;;;;;;;1030757;28;20018;-72
2023/02/06 01:51:40;;;;;;;30.40;13.38;;;;;;;;;;1030304;28;20027;-72
2023/02/06 01:52:19;;;;;;;33.80;15.85;;;;;;;;;;1028695;28;20407;-72
2023/02/06 01:52:50;;;;;;;24.17;12.73;;;;;;;;;;1034358;28;20026;-72
2023/02/06 01:53:21;;;;;;;34.28;14.75;;;;;;;;;;1033317;28;20026;-72
2023/02/06 01:53:54;;;;;;;24.90;13.50;;;;;;;;;;1032856;28;20026;-72
2023/02/06 01:54:27;;;;;;;26.90;12.80;;;;;;;;;;1034833;28;20049;-72
2023/02/06 01:55:02;;;;;;;25.27;12.85;;;;;;;;;;1034120;28;20785;-73
2023/02/06 01:55:36;;;;;;;37.78;14.10;;;;;;;;;;1034628;28;20093;-72
2023/02/06 01:56:08;;;;;;;30.00;15.13;;;;;;;;;;1032892;28;20037;-72
2023/02/06 01:56:41;;;;;;;41.50;14.60;;;;;;;;;;1030831;28;20094;-72
2023/02/06 01:57:12;;;;;;;37.78;17.17;;;;;;;;;;1033856;28;20026;-72
2023/02/06 01:57:46;;;;;;;36.78;14.60;;;;;;;;;;1035557;28;20469;-72
2023/02/06 01:58:24;;;;;;;28.67;12.98;;;;;;;;;;1035498;28;20601;-72
2023/02/06 01:58:57;;;;;;;29.40;13.43;;;;;;;;;;1032552;28;20116;-72
2023/02/06 01:59:27;;;;;;;26.13;13.43;;;;;;;;;;1033710;28;20034;-72
2023/02/06 02:00:00;;;;;;;30.48;12.45;;;;;;;;;;1031307;28;20026;-73
2023/02/06 02:00:31;;;;;;;33.25;16.08;;;;;;;;;;1031922;28;20030;-73
2023/02/06 02:01:04;;;;;;;22.25;12.73;;;;;;;;;;1030025;28;20034;-73
2023/02/06 02:01:34;;;;;;;38.72;13.50;;;;;;;;;;1027507;28;20526;-72
2023/02/06 02:02:06;;;;;;;27.15;14.57;;;;;;;;;;1030353;28;20050;-72
2023/02/06 02:02:38;;;;;;;39.28;16.25;;;;;;;;;;1029246;28;20082;-72
2023/02/06 02:03:10;;;;;;;40.58;17.05;;;;;;;;;;1029179;28;20027;-72
2023/02/06 02:03:41;;;;;;;30.27;14.93;;;;;;;;;;1029011;28;20479;-72
2023/02/06 02:04:15;;;;;;;28.73;14.95;;;;;;;;;;1030067;28;20871;-72
2023/02/06 02:04:47;;;;;;;36.17;18.35;;;;;;;;;;1031493;28;20073;-72
2023/02/06 02:05:23;;;;;;;27.23;13.10;;;;;;;;;;1031531;28;20066;-72
2023/02/06 02:05:58;;;;;;;31.23;14.98;;;;;;;;;;1031672;28;20041;-72
2023/02/06 02:06:29;;;;;;;37.30;15.88;;;;;;;;;;1035789;28;20077;-72
2023/02/06 02:07:03;;;;;;;38.88;18.10;;;;;;;;;;1032400;28;20032;-72
2023/02/06 02:07:44;;;;;;;36.47;18.52;;;;;;;;;;1035667;28;20069;-72
2023/02/06 02:08:43;;;;;;;42.03;17.25;;;;;;;;;;1033603;28;20046;-72
2023/02/06 02:09:20;;;;;;;40.50;15.75;;;;;;;;;;1034804;28;20021;-72
2023/02/06 02:09:54;;;;;;;34.00;16.52;;;;;;;;;;1031047;28;20023;-72
2023/02/06 02:10:30;;;;;;;40.65;16.85;;;;;;;;;;1037720;28;20085;-72
2023/02/06 02:11:03;;;;;;;36.35;16.77;;;;;;;;;;1032211;28;20037;-72
2023/02/06 02:11:35;;;;;;;41.13;18.65;;;;;;;;;;1033147;28;20030;-72
2023/02/06 02:12:10;;;;;;;39.75;16.42;;;;;;;;;;1033666;28;20026;-73
2023/02/06 02:12:41;;;;;;;33.38;15.30;;;;;;;;;;1032307;28;20031;-72
2023/02/06 02:13:13;;;;;;;42.05;15.82;;;;;;;;;;1032155;28;20141;-72
2023/02/06 02:13:43;;;;;;;47.20;16.80;;;;;;;;;;1034629;28;20033;-71
2023/02/06 02:14:15;;;;;;;33.67;16.55;;;;;;;;;;1034665;28;20079;-72
2023/02/06 02:14:47;;;;;;;51.28;19.08;;;;;;;;;;1037681;28;20050;-72
2023/02/06 02:15:18;;;;;;;44.33;17.80;;;;;;;;;;1037367;28;20011;-72
2023/02/06 02:15:49;;;;;;;40.60;18.80;;;;;;;;;;1032146;28;20049;-72
2023/02/06 02:16:30;;;;;;;44.53;17.67;;;;;;;;;;1032855;28;20061;-72
2023/02/06 02:17:12;;;;;;;37.03;16.25;;;;;;;;;;1028326;28;20031;-74
2023/02/06 02:17:55;;;;;;;46.63;17.20;;;;;;;;;;1030812;28;20028;-72
2023/02/06 02:18:28;;;;;;;34.97;16.45;;;;;;;;;;1024179;28;20039;-72
2023/02/06 02:19:02;;;;;;;26.80;14.52;;;;;;;;;;1028360;28;20022;-72
2023/02/06 02:19:52;;;;;;;37.72;13.80;;;;;;;;;;1034325;28;20081;-72
2023/02/06 02:20:38;;;;;;;24.75;12.48;;;;;;;;;;1024335;28;20036;-72
2023/02/06 02:21:08;;;;;;;33.70;13.15;;;;;;;;;;1031784;28;20403;-73
2023/02/06 02:21:39;;;;;;;33.22;12.80;;;;;;;;;;1035545;28;20036;-73
2023/02/06 02:22:34;;;;;;;39.83;15.85;;;;;;;;;;1029421;28;20040;-73
2023/02/06 02:23:44;;;;;;;26.70;13.18;;;;;;;;;;1034970;28;20040;-73
2023/02/06 02:24:38;;;;;;;33.08;14.35;;;;;;;;;;1014313;29;20195;-73
2023/02/06 02:25:30;;;;;;;29.92;13.85;;;;;;;;;;1008036;29;20085;-72
2023/02/06 02:26:10;;;;;;;30.05;14.52;;;;;;;;;;1017108;29;20395;-73
2023/02/06 02:26:48;;;;;;;30.83;14.68;;;;;;;;;;1012764;29;20072;-72
2023/02/06 02:27:21;;;;;;;42.92;17.13;;;;;;;;;;1015753;29;20123;-73
2023/02/06 02:27:54;;;;;;;25.95;12.52;;;;;;;;;;1016503;29;20112;-72
2023/02/06 02:28:36;;;;;;;26.92;13.93;;;;;;;;;;1012712;29;20416;-72
2023/02/06 02:29:26;;;;;;;34.05;16.08;;;;;;;;;;1011260;29;20033;-72
2023/02/06 02:29:58;;;;;;;25.83;12.93;;;;;;;;;;1013760;28;20069;-72
2023/02/06 02:30:31;;;;;;;38.67;14.57;;;;;;;;;;1031154;28;20010;-73
2023/02/06 02:31:17;;;;;;;40.65;16.17;;;;;;;;;;1032659;28;20040;-73
2023/02/06 02:32:06;;;;;;;31.85;16.13;;;;;;;;;;1036525;28;20038;-73
2023/02/06 02:32:47;;;;;;;29.55;13.70;;;;;;;;;;1036739;28;20041;-73
2023/02/06 02:33:29;;;;;;;40.40;16.60;;;;;;;;;;1033913;28;20067;-73
2023/02/06 02:34:16;;;;;;;26.98;12.25;;;;;;;;;;1034389;28;20438;-73
2023/02/06 02:35:21;;;;;;;40.80;13.23;;;;;;;;;;1036678;28;20050;-73
2023/02/06 02:35:57;;;;;;;26.92;13.70;;;;;;;;;;1023546;28;20026;-73
2023/02/06 02:36:41;;;;;;;38.97;13.50;;;;;;;;;;1018763;29;20059;-73
2023/02/06 02:37:14;;;;;;;33.50;15.40;;;;;;;;;;1028711;28;20094;-73
2023/02/06 02:37:55;;;;;;;30.45;13.77;;;;;;;;;;1028389;28;20057;-72
2023/02/06 02:38:25;;;;;;;;;;;;;;;;;;1028200;28;20050;-73
2023/02/06 02:39:10;;;;;;;26.38;13.02;;;;;;;;;;1024780;28;19918;-73
2023/02/06 02:39:44;;;;;;;31.42;14.98;;;;;;;;;;1027993;28;20094;-73
2023/02/06 02:40:34;;;;;;;33.22;15.35;;;;;;;;;;1030608;28;20895;-74
2023/02/06 02:41:07;;;;;;;;;;;;;;;;;;1027297;28;20031;-73
2023/02/06 02:42:10;;;;;;;30.85;14.52;;;;;;;;;;1027129;28;19914;-73
2023/02/06 02:42:53;;;;;;;36.50;13.98;;;;;;;;;;1003998;29;20108;-77
2023/02/06 02:43:28;;;;;;;30.20;15.45;;;;;;;;;;1030141;28;20030;-73
2023/02/06 02:44:06;;;;;;;27.67;13.90;;;;;;;;;;1031286;28;20014;-73
2023/02/06 02:44:49;;;;;;;34.33;13.50;;;;;;;;;;1032333;28;20113;-73
2023/02/06 02:45:45;;;;;;;31.70;13.18;;;;;;;;;;1029762;28;20026;-73
2023/02/06 02:46:26;;;;;;;39.45;14.75;;;;;;;;;;1029181;28;20149;-76
2023/02/06 02:47:00;;;;;;;27.88;14.48;;;;;;;;;;1026683;28;20015;-78
2023/02/06 02:47:32;;;;;;;32.42;16.33;;;;;;;;;;1030088;28;20362;-72
2023/02/06 02:48:05;;;;;;;34.75;14.63;;;;;;;;;;1023799;28;20061;-73
2023/02/06 02:48:39;;;;;;;41.35;18.45;;;;;;;;;;1030835;28;20058;-74
2023/02/06 02:49:23;;;;;;;36.20;16.80;;;;;;;;;;1030278;28;20086;-73
2023/02/06 02:50:03;;;;;;;35.83;14.65;;;;;;;;;;1038453;28;20052;-72
2023/02/06 02:50:38;;;;;;;38.40;18.67;;;;;;;;;;1033624;28;20073;-72
2023/02/06 02:51:12;;;;;;;42.60;19.23;;;;;;;;;;1032743;28;20076;-73
2023/02/06 02:51:45;;;;;;;40.70;19.83;;;;;;;;;;1032306;28;20022;-74
2023/02/06 02:52:19;;;;;;;47.00;21.33;;;;;;;;;;1031568;28;20031;-73
2023/02/06 02:56:42;;;;;;;54.05;24.42;;;;;;;;;;1020773;28;20043;-80
2023/02/06 02:57:18;;;;;;;53.30;25.95;;;;;;;;;;1022123;29;20036;-76
2023/02/06 03:02:42;;;;;;;;;;;;;;;;;;;;;
2023/02/06 03:04:03;;;;;;;;;;;;;;;;;;1121266;23;20102;-82
2023/02/06 03:04:43;;;;;;;88.18;39.63;;;;;;;;;;1025732;28;19918;-83
2023/02/06 03:06:43;;;;;;;95.68;43.55;;;;;;;;;;1024940;28;19938;-77
2023/02/06 03:07:19;;;;;;;92.40;42.20;;;;;;;;;;1022263;28;20035;-77
2023/02/06 03:07:56;;;;;;;97.00;47.25;;;;;;;;;;1019979;29;20065;-78
2023/02/06 03:08:41;;;;;;;98.82;48.20;;;;;;;;;;1022188;29;20045;-77
2023/02/06 03:09:35;;;;;;;96.05;42.25;;;;;;;;;;1019928;29;20035;-75
2023/02/06 03:10:24;;;;;;;122.95;45.75;;;;;;;;;;1015675;28;20046;-76
2023/02/06 03:11:07;;;;;;;110.80;45.97;;;;;;;;;;1025509;28;20054;-77
2023/02/06 03:11:44;;;;;;;99.55;40.97;;;;;;;;;;1021159;28;20035;-77
2023/02/06 03:12:21;;;;;;;86.97;43.35;;;;;;;;;;1021448;28;20034;-77
2023/02/06 03:12:54;;;;;;;102.68;48.30;;;;;;;;;;1022175;28;20034;-77
2023/02/06 03:13:31;;;;;;;101.57;47.92;;;;;;;;;;1022895;28;20474;-78
2023/02/06 03:14:11;;;;;;;99.18;49.42;;;;;;;;;;1020244;28;20158;-76
2023/02/06 03:15:04;;;;;;;101.65;46.58;;;;;;;;;;1014831;29;20138;-76
2023/02/06 03:15:45;;;;;;;99.05;45.55;;;;;;;;;;1018675;29;20091;-76
2023/02/06 03:16:27;;;;;;;101.22;45.53;;;;;;;;;;1017631;29;20083;-76
2023/02/06 03:17:02;;;;;;;96.82;45.60;;;;;;;;;;1016768;29;20194;-76
2023/02/06 03:17:36;;;;;;;98.63;43.17;;;;;;;;;;1012945;29;20032;-76
2023/02/06 03:18:19;;;;;;;114.75;47.00;;;;;;;;;;1011543;29;20032;-76
2023/02/06 03:19:01;;;;;;;104.22;44.20;;;;;;;;;;1014692;29;20040;-78
2023/02/06 03:19:35;;;;;;;103.03;44.90;;;;;;;;;;1017466;29;20472;-77
2023/02/06 03:20:08;;;;;;;103.93;47.45;;;;;;;;;;1019043;29;20542;-78
2023/02/06 03:20:41;;;;;;;118.03;48.60;;;;;;;;;;1015170;29;20050;-77
2023/02/06 03:21:15;;;;;;;110.10;49.95;;;;;;;;;;1014285;29;20023;-77
2023/02/06 03:21:46;;;;;;;113.65;51.47;;;;;;;;;;1014085;29;20032;-77
2023/02/06 03:22:17;;;;;;;103.75;51.10;;;;;;;;;;1017970;29;20143;-77
2023/02/06 03:22:49;;;;;;;117.95;50.28;;;;;;;;;;1020398;28;20110;-76
2023/02/06 03:23:27;;;;;;;109.05;50.38;;;;;;;;;;1020089;29;20023;-77
2023/02/06 03:24:05;;;;;;;106.07;48.00;;;;;;;;;;1021529;28;20054;-79
2023/02/06 03:24:40;;;;;;;107.45;50.42;;;;;;;;;;1020256;29;20028;-77
2023/02/06 03:25:17;;;;;;;120.68;50.25;;;;;;;;;;1021581;28;20027;-77
2023/02/06 03:25:50;;;;;;;114.40;49.08;;;;;;;;;;1023836;28;20030;-78
2023/02/06 03:26:22;;;;;;;126.03;52.45;;;;;;;;;;1019228;28;20121;-78
2023/02/06 03:26:57;;;;;;;106.70;51.08;;;;;;;;;;1018777;28;20122;-78
2023/02/06 03:27:29;;;;;;;116.30;47.63;;;;;;;;;;1016660;29;20079;-77
2023/02/06 03:28:03;;;;;;;117.85;53.60;;;;;;;;;;1013430;29;20039;-77
2023/02/06 03:28:36;;;;;;;115.50;49.90;;;;;;;;;;1017725;29;20459;-77
2023/02/06 03:29:09;;;;;;;111.65;46.63;;;;;;;;;;1014235;29;20039;-76